sensor_id;sensor_type;location;lat;lon;timestamp;pressure;altitude;pressure_sealevel;temperature;humidity
57572;BME280;44459;43.522;24.470;2023-02-28T00:00:48;101058.69;;;6.14;100.00
57572;BME280;44459;43.522;24.470;2023-02-28T00:03:13;101058.63;;;6.12;100.00
57572;BME280;44459;43.522;24.470;2023-02-28T00:05:39;101054.78;;;6.02;100.00
57572;BME280;44459;43.522;24.470;2023-02-28T00:08:04;101067.00;;;6.02;100.00
57572;BME280;44459;43.522;24.470;2023-02-28T00:10:31;101082.63;;;6.00;100.00
57572;BME280;44459;43.522;24.470;2023-02-28T00:13:03;101086.28;;;6.04;100.00
57572;BME280;44459;43.522;24.470;2023-02-28T00:15:30;101085.44;;;6.05;100.00
57572;BME280;44459;43.522;24.470;2023-02-28T00:17:55;101084.44;;;6.01;100.00
57572;BME280;44459;43.522;24.470;2023-02-28T00:20:21;101096.72;;;6.02;100.00
57572;BME280;44459;43.522;24.470;2023-02-28T00:22:49;101103.88;;;6.06;100.00
57572;BME280;44459;43.522;24.470;2023-02-28T00:25:17;101100.38;;;6.07;100.00
57572;BME280;44459;43.522;24.470;2023-02-28T00:27:44;101101.25;;;6.06;100.00
57572;BME280;44459;43.522;24.470;2023-02-28T00:30:13;101105.78;;;6.11;100.00
57572;BME280;44459;43.522;24.470;2023-02-28T00:32:39;101110.03;;;6.08;100.00
57572;BME280;44459;43.522;24.470;2023-02-28T00:35:05;101104.09;;;6.13;100.00
57572;BME280;44459;43.522;24.470;2023-02-28T00:37:31;101110.53;;;6.21;100.00
57572;BME280;44459;43.522;24.470;2023-02-28T00:39:57;101108.94;;;6.26;100.00
57572;BME280;44459;43.522;24.470;2023-02-28T00:42:23;101115.97;;;6.27;100.00
57572;BME280;44459;43.522;24.470;2023-02-28T00:44:48;101126.19;;;6.19;100.00
57572;BME280;44459;43.522;24.470;2023-02-28T00:47:14;101129.09;;;6.27;100.00
57572;BME280;44459;43.522;24.470;2023-02-28T00:49:39;101128.50;;;6.34;100.00
57572;BME280;44459;43.522;24.470;2023-02-28T00:52:05;101127.66;;;6.35;100.00
57572;BME280;44459;43.522;24.470;2023-02-28T00:54:30;101129.09;;;6.27;100.00
57572;BME280;44459;43.522;24.470;2023-02-28T00:56:56;101122.06;;;6.26;100.00
57572;BME280;44459;43.522;24.470;2023-02-28T00:59:21;101118.38;;;6.21;100.00
57572;BME280;44459;43.522;24.470;2023-02-28T01:01:47;101109.41;;;6.14;100.00
57572;BME280;44459;43.522;24.470;2023-02-28T01:04:13;101109.56;;;6.19;100.00
57572;BME280;44459;43.522;24.470;2023-02-28T01:06:39;101111.63;;;6.27;100.00
57572;BME280;44459;43.522;24.470;2023-02-28T01:09:05;101116.19;;;6.33;100.00
57572;BME280;44459;43.522;24.470;2023-02-28T01:11:32;101108.94;;;6.26;100.00
57572;BME280;44459;43.522;24.470;2023-02-28T01:13:57;101105.53;;;6.28;100.00
57572;BME280;44459;43.522;24.470;2023-02-28T01:16:23;101106.94;;;6.19;100.00
57572;BME280;44459;43.522;24.470;2023-02-28T01:18:49;101099.63;;;6.10;100.00
57572;BME280;44459;43.522;24.470;2023-02-28T01:21:16;101105.63;;;6.07;100.00
57572;BME280;44459;43.522;24.470;2023-02-28T01:23:43;101098.03;;;5.91;100.00
57572;BME280;44459;43.522;24.470;2023-02-28T01:26:11;101101.91;;;5.80;100.00
57572;BME280;44459;43.522;24.470;2023-02-28T01:28:37;101100.63;;;5.69;100.00
57572;BME280;44459;43.522;24.470;2023-02-28T01:31:03;101096.94;;;5.64;100.00
57572;BME280;44459;43.522;24.470;2023-02-28T01:33:29;101097.88;;;5.44;100.00
57572;BME280;44459;43.522;24.470;2023-02-28T01:36:02;101101.41;;;5.46;100.00
57572;BME280;44459;43.522;24.470;2023-02-28T01:38:28;101105.75;;;5.45;100.00
57572;BME280;44459;43.522;24.470;2023-02-28T01:40:54;101102.13;;;5.42;100.00
57572;BME280;44459;43.522;24.470;2023-02-28T01:43:26;101100.03;;;5.33;100.00
57572;BME280;44459;43.522;24.470;2023-02-28T01:45:53;101099.72;;;5.26;100.00
57572;BME280;44459;43.522;24.470;2023-02-28T01:48:22;101096.09;;;5.22;100.00
57572;BME280;44459;43.522;24.470;2023-02-28T01:50:51;101102.91;;;5.19;100.00
57572;BME280;44459;43.522;24.470;2023-02-28T01:53:21;101109.75;;;5.15;100.00
57572;BME280;44459;43.522;24.470;2023-02-28T01:55:51;101098.84;;;5.04;100.00
57572;BME280;44459;43.522;24.470;2023-02-28T01:58:18;101096.78;;;4.97;100.00
57572;BME280;44459;43.522;24.470;2023-02-28T02:00:44;101093.16;;;4.94;100.00
57572;BME280;44459;43.522;24.470;2023-02-28T02:03:15;101095.63;;;4.91;100.00
57572;BME280;44459;43.522;24.470;2023-02-28T02:05:44;101086.78;;;4.87;100.00
57572;BME280;44459;43.522;24.470;2023-02-28T02:08:19;101091.75;;;4.81;100.00
57572;BME280;44459;43.522;24.470;2023-02-28T02:10:50;101088.03;;;4.76;100.00
57572;BME280;44459;43.522;24.470;2023-02-28T02:13:41;101096.66;;;4.74;100.00
57572;BME280;44459;43.522;24.470;2023-02-28T02:24:23;101096.22;;;4.44;100.00
57572;BME280;44459;43.522;24.470;2023-02-28T02:27:06;101097.63;;;4.37;100.00
57572;BME280;44459;43.522;24.470;2023-02-28T02:35:30;101100.53;;;4.24;100.00
57572;BME280;44459;43.522;24.470;2023-02-28T02:38:11;101092.63;;;4.23;100.00
57572;BME280;44459;43.522;24.470;2023-02-28T02:40:43;101093.06;;;4.13;100.00
57572;BME280;44459;43.522;24.470;2023-02-28T02:43:39;101089.81;;;4.18;100.00
57572;BME280;44459;43.522;24.470;2023-02-28T02:46:26;101088.78;;;4.15;100.00
57572;BME280;44459;43.522;24.470;2023-02-28T02:48:55;101083.41;;;4.12;100.00
57572;BME280;44459;43.522;24.470;2023-02-28T02:51:23;101085.75;;;4.05;100.00
57572;BME280;44459;43.522;24.470;2023-02-28T02:53:53;101090.13;;;4.06;100.00
57572;BME280;44459;43.522;24.470;2023-02-28T02:56:23;101084.72;;;4.02;100.00
57572;BME280;44459;43.522;24.470;2023-02-28T02:58:50;101091.44;;;3.97;100.00
57572;BME280;44459;43.522;24.470;2023-02-28T03:01:21;101105.53;;;4.00;100.00
57572;BME280;44459;43.522;24.470;2023-02-28T03:03:58;101103.59;;;3.96;100.00
57572;BME280;44459;43.522;24.470;2023-02-28T03:06:25;101114.13;;;3.98;100.00
57572;BME280;44459;43.522;24.470;2023-02-28T03:08:51;101106.63;;;3.86;100.00
57572;BME280;44459;43.522;24.470;2023-02-28T03:11:16;101103.06;;;3.84;100.00
57572;BME280;44459;43.522;24.470;2023-02-28T03:24:53;101109.91;;;3.82;100.00
57572;BME280;44459;43.522;24.470;2023-02-28T03:27:29;101115.84;;;3.78;100.00
57572;BME280;44459;43.522;24.470;2023-02-28T03:32:35;101131.28;;;3.74;100.00
57572;BME280;44459;43.522;24.470;2023-02-28T03:35:12;101131.13;;;3.71;100.00
57572;BME280;44459;43.522;24.470;2023-02-28T03:37:42;101143.34;;;3.72;100.00
57572;BME280;44459;43.522;24.470;2023-02-28T03:40:13;101142.16;;;3.65;100.00
57572;BME280;44459;43.522;24.470;2023-02-28T03:42:44;101146.19;;;3.76;100.00
57572;BME280;44459;43.522;24.470;2023-02-28T03:45:18;101148.88;;;3.78;100.00
57572;BME280;44459;43.522;24.470;2023-02-28T03:48:03;101154.28;;;3.82;100.00
57572;BME280;44459;43.522;24.470;2023-02-28T03:51:05;101155.81;;;3.77;100.00
57572;BME280;44459;43.522;24.470;2023-02-28T03:53:36;101156.56;;;3.75;100.00
57572;BME280;44459;43.522;24.470;2023-02-28T03:56:16;101165.59;;;3.81;100.00
57572;BME280;44459;43.522;24.470;2023-02-28T04:01:16;101169.63;;;3.75;100.00
57572;BME280;44459;43.522;24.470;2023-02-28T04:03:44;101168.88;;;3.77;100.00
57572;BME280;44459;43.522;24.470;2023-02-28T04:06:15;101164.75;;;3.65;100.00
57572;BME280;44459;43.522;24.470;2023-02-28T04:08:42;101171.63;;;3.63;100.00
57572;BME280;44459;43.522;24.470;2023-02-28T04:13:38;101172.25;;;3.57;100.00
57572;BME280;44459;43.522;24.470;2023-02-28T04:16:07;101167.06;;;3.59;100.00
57572;BME280;44459;43.522;24.470;2023-02-28T04:18:40;101170.44;;;3.56;100.00
57572;BME280;44459;43.522;24.470;2023-02-28T04:21:06;101163.50;;;3.57;100.00
57572;BME280;44459;43.522;24.470;2023-02-28T04:23:32;101162.66;;;3.58;100.00
57572;BME280;44459;43.522;24.470;2023-02-28T04:25:58;101152.78;;;3.50;100.00
57572;BME280;44459;43.522;24.470;2023-02-28T04:28:23;101141.28;;;3.47;100.00
57572;BME280;44459;43.522;24.470;2023-02-28T04:31:01;101144.56;;;3.43;100.00
57572;BME280;44459;43.522;24.470;2023-02-28T04:33:26;101152.31;;;3.41;100.00
57572;BME280;44459;43.522;24.470;2023-02-28T04:36:02;101164.69;;;3.45;100.00
57572;BME280;44459;43.522;24.470;2023-02-28T04:38:32;101168.88;;;3.42;100.00
57572;BME280;44459;43.522;24.470;2023-02-28T04:40:59;101181.25;;;3.46;100.00
57572;BME280;44459;43.522;24.470;2023-02-28T04:43:29;101174.31;;;3.46;100.00
57572;BME280;44459;43.522;24.470;2023-02-28T04:45:55;101172.59;;;3.47;100.00
57572;BME280;44459;43.522;24.470;2023-02-28T04:48:26;101179.75;;;3.51;100.00
57572;BME280;44459;43.522;24.470;2023-02-28T04:50:52;101181.25;;;3.46;100.00
57572;BME280;44459;43.522;24.470;2023-02-28T04:53:18;101183.63;;;3.41;100.00
57572;BME280;44459;43.522;24.470;2023-02-28T04:55:44;101193.50;;;3.47;100.00
57572;BME280;44459;43.522;24.470;2023-02-28T04:58:10;101189.97;;;3.46;100.00
57572;BME280;44459;43.522;24.470;2023-02-28T05:00:35;101184.38;;;3.39;100.00
57572;BME280;44459;43.522;24.470;2023-02-28T05:03:01;101189.00;;;3.44;100.00
57572;BME280;44459;43.522;24.470;2023-02-28T05:05:26;101190.69;;;3.44;100.00
57572;BME280;44459;43.522;24.470;2023-02-28T05:07:51;101196.75;;;3.43;100.00
57572;BME280;44459;43.522;24.470;2023-02-28T05:10:18;101198.72;;;3.47;100.00
57572;BME280;44459;43.522;24.470;2023-02-28T05:12:44;101203.19;;;3.49;100.00
57572;BME280;44459;43.522;24.470;2023-02-28T05:15:13;101208.91;;;3.42;100.00
57572;BME280;44459;43.522;24.470;2023-02-28T05:17:39;101213.53;;;3.48;100.00
57572;BME280;44459;43.522;24.470;2023-02-28T05:20:05;101202.94;;;3.45;100.00
57572;BME280;44459;43.522;24.470;2023-02-28T05:22:31;101215.41;;;3.50;100.00
57572;BME280;44459;43.522;24.470;2023-02-28T05:24:57;101217.94;;;3.49;100.00
57572;BME280;44459;43.522;24.470;2023-02-28T05:27:23;101212.88;;;3.52;100.00
57572;BME280;44459;43.522;24.470;2023-02-28T05:29:48;101218.88;;;3.51;100.00
57572;BME280;44459;43.522;24.470;2023-02-28T05:32:13;101226.00;;;3.53;100.00
57572;BME280;44459;43.522;24.470;2023-02-28T05:34:39;101231.66;;;3.63;100.00
57572;BME280;44459;43.522;24.470;2023-02-28T05:37:06;101243.06;;;3.65;100.00
57572;BME280;44459;43.522;24.470;2023-02-28T05:39:32;101243.81;;;3.62;100.00
57572;BME280;44459;43.522;24.470;2023-02-28T05:41:58;101251.50;;;3.59;100.00
57572;BME280;44459;43.522;24.470;2023-02-28T05:44:24;101246.03;;;3.54;100.00
57572;BME280;44459;43.522;24.470;2023-02-28T05:46:49;101253.44;;;3.63;100.00
57572;BME280;44459;43.522;24.470;2023-02-28T05:49:15;101250.84;;;3.63;100.00
57572;BME280;44459;43.522;24.470;2023-02-28T05:51:40;101255.16;;;3.63;100.00
57572;BME280;44459;43.522;24.470;2023-02-28T05:54:06;101254.88;;;3.57;100.00
57572;BME280;44459;43.522;24.470;2023-02-28T05:56:32;101254.78;;;3.55;100.00
57572;BME280;44459;43.522;24.470;2023-02-28T05:59:00;101258.44;;;3.59;100.00
57572;BME280;44459;43.522;24.470;2023-02-28T06:03:58;101260.00;;;3.55;100.00
57572;BME280;44459;43.522;24.470;2023-02-28T06:06:24;101258.88;;;3.50;100.00
57572;BME280;44459;43.522;24.470;2023-02-28T06:08:49;101254.78;;;3.55;100.00
57572;BME280;44459;43.522;24.470;2023-02-28T06:11:14;101257.31;;;3.53;100.00
57572;BME280;44459;43.522;24.470;2023-02-28T06:13:40;101258.88;;;3.50;100.00
57572;BME280;44459;43.522;24.470;2023-02-28T06:16:06;101255.06;;;3.43;100.00
57572;BME280;44459;43.522;24.470;2023-02-28T06:18:32;101263.41;;;3.54;100.00
57572;BME280;44459;43.522;24.470;2023-02-28T06:20:57;101264.09;;;3.50;100.00
57572;BME280;44459;43.522;24.470;2023-02-28T06:23:23;101269.47;;;3.53;100.00
57572;BME280;44459;43.522;24.470;2023-02-28T06:25:48;101266.88;;;3.53;100.00
57572;BME280;44459;43.522;24.470;2023-02-28T06:28:14;101277.06;;;3.48;100.00
57572;BME280;44459;43.522;24.470;2023-02-28T06:30:40;101273.56;;;3.48;100.00
57572;BME280;44459;43.522;24.470;2023-02-28T06:33:05;101267.69;;;3.52;100.00
57572;BME280;44459;43.522;24.470;2023-02-28T06:35:31;101274.34;;;3.63;100.00
57572;BME280;44459;43.522;24.470;2023-02-28T06:37:56;101276.44;;;3.70;100.00
57572;BME280;44459;43.522;24.470;2023-02-28T06:40:22;101279.03;;;3.70;100.00
57572;BME280;44459;43.522;24.470;2023-02-28T06:42:47;101275.38;;;3.67;100.00
57572;BME280;44459;43.522;24.470;2023-02-28T06:45:13;101269.94;;;3.62;100.00
57572;BME280;44459;43.522;24.470;2023-02-28T06:47:40;101274.34;;;3.63;100.00
57572;BME280;44459;43.522;24.470;2023-02-28T06:50:08;101273.34;;;3.61;100.00
57572;BME280;44459;43.522;24.470;2023-02-28T06:52:34;101281.94;;;3.59;100.00
57572;BME280;44459;43.522;24.470;2023-02-28T06:55:06;101286.25;;;3.58;100.00
57572;BME280;44459;43.522;24.470;2023-02-28T06:57:33;101284.47;;;3.57;100.00
57572;BME280;44459;43.522;24.470;2023-02-28T07:00:00;101283.34;;;3.52;100.00
57572;BME280;44459;43.522;24.470;2023-02-28T07:02:26;101286.25;;;3.58;100.00
57572;BME280;44459;43.522;24.470;2023-02-28T07:04:52;101280.72;;;3.52;100.00
57572;BME280;44459;43.522;24.470;2023-02-28T07:07:17;101298.34;;;3.56;100.00
57572;BME280;44459;43.522;24.470;2023-02-28T07:09:42;101297.03;;;3.64;100.00
57572;BME280;44459;43.522;24.470;2023-02-28T07:12:08;101290.34;;;3.53;100.00
57572;BME280;44459;43.522;24.470;2023-02-28T07:14:33;101292.22;;;3.55;100.00
57572;BME280;44459;43.522;24.470;2023-02-28T07:17:01;101296.47;;;3.53;100.00
57572;BME280;44459;43.522;24.470;2023-02-28T07:19:26;101292.22;;;3.55;100.00
57572;BME280;44459;43.522;24.470;2023-02-28T07:21:52;101291.16;;;3.52;100.00
57572;BME280;44459;43.522;24.470;2023-02-28T07:24:17;101291.16;;;3.52;100.00
57572;BME280;44459;43.522;24.470;2023-02-28T07:26:43;101281.47;;;3.49;100.00
57572;BME280;44459;43.522;24.470;2023-02-28T07:29:08;101280.06;;;3.56;100.00
57572;BME280;44459;43.522;24.470;2023-02-28T07:31:34;101279.41;;;3.60;100.00
57572;BME280;44459;43.522;24.470;2023-02-28T07:33:59;101288.34;;;3.65;100.00
57572;BME280;44459;43.522;24.470;2023-02-28T07:36:25;101287.16;;;3.59;100.00
57572;BME280;44459;43.522;24.470;2023-02-28T07:38:50;101294.06;;;3.58;100.00
57572;BME280;44459;43.522;24.470;2023-02-28T07:41:18;101295.28;;;3.65;100.00
57572;BME280;44459;43.522;24.470;2023-02-28T07:43:45;101293.56;;;3.65;100.00
57572;BME280;44459;43.522;24.470;2023-02-28T07:46:13;101296.69;;;3.58;100.00
57572;BME280;44459;43.522;24.470;2023-02-28T07:48:40;101290.75;;;3.61;100.00
57572;BME280;44459;43.522;24.470;2023-02-28T07:51:06;101298.34;;;3.56;100.00
57572;BME280;44459;43.522;24.470;2023-02-28T07:53:32;101295.78;;;3.58;100.00
57572;BME280;44459;43.522;24.470;2023-02-28T07:55:59;101294.56;;;3.67;100.00
57572;BME280;44459;43.522;24.470;2023-02-28T07:58:25;101299.69;;;3.66;100.00
57572;BME280;44459;43.522;24.470;2023-02-28T08:00:51;101301.09;;;3.59;100.00
57572;BME280;44459;43.522;24.470;2023-02-28T08:03:18;101307.28;;;3.61;100.00
57572;BME280;44459;43.522;24.470;2023-02-28T08:05:44;101300.50;;;3.65;100.00
57572;BME280;44459;43.522;24.470;2023-02-28T08:08:09;101299.94;;;3.54;100.00
57572;BME280;44459;43.522;24.470;2023-02-28T08:10:35;101298.41;;;3.58;100.00
57572;BME280;44459;43.522;24.470;2023-02-28T08:13:00;101300.78;;;3.53;100.00
57572;BME280;44459;43.522;24.470;2023-02-28T08:15:26;101294.22;;;3.61;100.00
57572;BME280;44459;43.522;24.470;2023-02-28T08:17:52;101299.94;;;3.70;100.00
57572;BME280;44459;43.522;24.470;2023-02-28T08:20:18;101296.19;;;3.65;100.00
57572;BME280;44459;43.522;24.470;2023-02-28T08:22:43;101292.59;;;3.63;100.00
57572;BME280;44459;43.522;24.470;2023-02-28T08:25:09;101290.00;;;3.63;100.00
57572;BME280;44459;43.522;24.470;2023-02-28T08:27:35;101300.09;;;3.73;100.00
57572;BME280;44459;43.522;24.470;2023-02-28T08:30:01;101294.78;;;3.72;100.00
57572;BME280;44459;43.522;24.470;2023-02-28T08:32:26;101292.25;;;3.73;100.00
57572;BME280;44459;43.522;24.470;2023-02-28T08:34:51;101290.31;;;3.69;100.00
57572;BME280;44459;43.522;24.470;2023-02-28T08:37:17;101297.16;;;3.67;100.00
57572;BME280;44459;43.522;24.470;2023-02-28T08:39:42;101295.63;;;3.71;100.00
57572;BME280;44459;43.522;24.470;2023-02-28T08:42:08;101306.13;;;3.72;100.00
57572;BME280;44459;43.522;24.470;2023-02-28T08:44:33;101303.16;;;3.82;100.00
57572;BME280;44459;43.522;24.470;2023-02-28T08:46:59;101296.06;;;3.80;100.00
57572;BME280;44459;43.522;24.470;2023-02-28T08:49:24;101303.34;;;3.69;100.00
57572;BME280;44459;43.522;24.470;2023-02-28T08:51:50;101304.94;;;3.83;100.00
57572;BME280;44459;43.522;24.470;2023-02-28T08:54:15;101306.91;;;3.87;100.00
57572;BME280;44459;43.522;24.470;2023-02-28T08:56:45;101304.13;;;3.84;100.00
57572;BME280;44459;43.522;24.470;2023-02-28T08:59:12;101310.91;;;3.81;100.00
57572;BME280;44459;43.522;24.470;2023-02-28T09:01:37;101305.69;;;3.81;100.00
57572;BME280;44459;43.522;24.470;2023-02-28T09:04:03;101307.69;;;3.86;100.00
57572;BME280;44459;43.522;24.470;2023-02-28T09:06:28;101296.16;;;3.81;100.00
57572;BME280;44459;43.522;24.470;2023-02-28T09:08:57;101301.53;;;3.84;100.00
57572;BME280;44459;43.522;24.470;2023-02-28T09:11:23;101306.59;;;3.81;100.00
57572;BME280;44459;43.522;24.470;2023-02-28T09:13:49;101308.50;;;3.85;100.00
57572;BME280;44459;43.522;24.470;2023-02-28T09:16:16;101309.22;;;3.99;100.00
57572;BME280;44459;43.522;24.470;2023-02-28T09:18:41;101310.84;;;3.97;100.00
57572;BME280;44459;43.522;24.470;2023-02-28T09:21:09;101316.16;;;3.98;100.00
57572;BME280;44459;43.522;24.470;2023-02-28T10:09:45;101317.56;;;3.74;100.00
57572;BME280;44459;43.522;24.470;2023-02-28T10:12:12;101319.94;;;3.87;100.00
57572;BME280;44459;43.522;24.470;2023-02-28T10:14:42;101308.75;;;3.90;100.00
57572;BME280;44459;43.522;24.470;2023-02-28T10:17:13;101309.00;;;3.94;100.00
57572;BME280;44459;43.522;24.470;2023-02-28T10:22:20;101309.13;;;3.97;100.00
57572;BME280;44459;43.522;24.470;2023-02-28T10:24:50;101308.25;;;3.97;100.00
57572;BME280;44459;43.522;24.470;2023-02-28T10:27:19;101303.25;;;4.01;100.00
57572;BME280;44459;43.522;24.470;2023-02-28T10:29:50;101302.59;;;4.05;100.00
57572;BME280;44459;43.522;24.470;2023-02-28T10:32:26;101303.63;;;4.09;100.00
57572;BME280;44459;43.522;24.470;2023-02-28T10:37:42;101299.22;;;4.08;100.00
57572;BME280;44459;43.522;24.470;2023-02-28T10:45:38;101303.03;;;4.15;100.00
57572;BME280;44459;43.522;24.470;2023-02-28T10:50:52;101296.84;;;4.30;100.00
57572;BME280;44459;43.522;24.470;2023-02-28T10:58:58;101299.44;;;4.13;100.00
57572;BME280;44459;43.522;24.470;2023-02-28T11:01:35;101300.50;;;4.16;100.00
57572;BME280;44459;43.522;24.470;2023-02-28T11:04:01;101289.28;;;4.19;100.00
57572;BME280;44459;43.522;24.470;2023-02-28T11:06:32;101287.63;;;4.21;100.00
57572;BME280;44459;43.522;24.470;2023-02-28T11:09:02;101274.50;;;4.19;100.00
57572;BME280;44459;43.522;24.470;2023-02-28T11:11:29;101271.22;;;4.23;100.00
57572;BME280;44459;43.522;24.470;2023-02-28T11:14:04;101266.59;;;4.18;100.00
57572;BME280;44459;43.522;24.470;2023-02-28T11:16:36;101260.84;;;4.25;100.00
57572;BME280;44459;43.522;24.470;2023-02-28T11:19:04;101267.84;;;4.26;100.00
57572;BME280;44459;43.522;24.470;2023-02-28T11:21:36;101260.31;;;4.32;100.00
57572;BME280;44459;43.522;24.470;2023-02-28T11:26:46;101263.19;;;4.38;100.00
57572;BME280;44459;43.522;24.470;2023-02-28T11:29:22;101257.91;;;4.36;100.00
57572;BME280;44459;43.522;24.470;2023-02-28T11:34:37;101252.16;;;4.43;100.00
57572;BME280;44459;43.522;24.470;2023-02-28T11:37:05;101255.81;;;4.47;100.00
57572;BME280;44459;43.522;24.470;2023-02-28T11:39:35;101263.25;;;4.57;100.00
57572;BME280;44459;43.522;24.470;2023-02-28T11:50:40;101263.19;;;4.38;100.00
57572;BME280;44459;43.522;24.470;2023-02-28T11:53:19;101260.72;;;4.41;100.00
57572;BME280;44459;43.522;24.470;2023-02-28T11:59:01;101252.53;;;4.33;100.00
57572;BME280;44459;43.522;24.470;2023-02-28T12:01:58;101257.16;;;4.39;100.00
57572;BME280;44459;43.522;24.470;2023-02-28T12:04:47;101261.75;;;4.44;100.00
57572;BME280;44459;43.522;24.470;2023-02-28T12:10:25;101256.41;;;4.41;100.00
57572;BME280;44459;43.522;24.470;2023-02-28T12:13:18;101263.69;;;4.48;100.00
57572;BME280;44459;43.522;24.470;2023-02-28T12:15:56;101259.00;;;4.41;100.00
57572;BME280;44459;43.522;24.470;2023-02-28T12:26:48;101268.56;;;4.41;100.00
57572;BME280;44459;43.522;24.470;2023-02-28T12:29:26;101272.31;;;4.46;100.00
57572;BME280;44459;43.522;24.470;2023-02-28T12:35:18;101264.09;;;4.38;100.00
57572;BME280;44459;43.522;24.470;2023-02-28T12:37:49;101263.28;;;4.39;100.00
57572;BME280;44459;43.522;24.470;2023-02-28T12:40:22;101259.91;;;4.42;100.00
57572;BME280;44459;43.522;24.470;2023-02-28T12:43:01;101261.03;;;4.47;100.00
57572;BME280;44459;43.522;24.470;2023-02-28T12:45:39;101261.03;;;4.47;100.00
57572;BME280;44459;43.522;24.470;2023-02-28T12:48:08;101256.75;;;4.49;100.00
57572;BME280;44459;43.522;24.470;2023-02-28T12:50:36;101251.66;;;4.52;100.00
57572;BME280;44459;43.522;24.470;2023-02-28T12:53:07;101247.97;;;4.47;100.00
57572;BME280;44459;43.522;24.470;2023-02-28T13:06:53;101251.38;;;4.46;100.00
57572;BME280;44459;43.522;24.470;2023-02-28T13:09:23;101257.16;;;4.39;100.00
57572;BME280;44459;43.522;24.470;2023-02-28T13:11:50;101260.72;;;4.41;100.00
57572;BME280;44459;43.522;24.470;2023-02-28T13:14:22;101254.47;;;4.37;100.00
57572;BME280;44459;43.522;24.470;2023-02-28T13:24:52;101253.28;;;4.31;100.00
57572;BME280;44459;43.522;24.470;2023-02-28T13:29:43;101247.22;;;4.32;100.00
57572;BME280;44459;43.522;24.470;2023-02-28T13:32:28;101243.13;;;4.37;100.00
57572;BME280;44459;43.522;24.470;2023-02-28T13:47:39;101228.72;;;4.27;100.00
57572;BME280;44459;43.522;24.470;2023-02-28T14:00:59;101241.78;;;4.27;100.00
57572;BME280;44459;43.522;24.470;2023-02-28T14:06:32;101246.28;;;4.30;100.00
57572;BME280;44459;43.522;24.470;2023-02-28T14:09:01;101230.59;;;4.30;100.00
57572;BME280;44459;43.522;24.470;2023-02-28T14:11:34;101244.72;;;4.33;100.00
57572;BME280;44459;43.522;24.470;2023-02-28T14:14:01;101232.22;;;4.28;100.00
57572;BME280;44459;43.522;24.470;2023-02-28T14:16:47;101234.44;;;4.38;100.00
57572;BME280;44459;43.522;24.470;2023-02-28T14:19:26;101230.06;;;4.37;100.00
57572;BME280;44459;43.522;24.470;2023-02-28T14:27:44;101230.28;;;4.24;100.00
57572;BME280;44459;43.522;24.470;2023-02-28T14:32:51;101229.69;;;4.29;100.00
57572;BME280;44459;43.522;24.470;2023-02-28T14:37:51;101236.63;;;4.29;100.00
57572;BME280;44459;43.522;24.470;2023-02-28T14:40:30;101239.03;;;4.24;100.00
57572;BME280;44459;43.522;24.470;2023-02-28T14:42:59;101242.31;;;4.20;100.00
57572;BME280;44459;43.522;24.470;2023-02-28T14:45:28;101246.44;;;4.15;100.00
57572;BME280;44459;43.522;24.470;2023-02-28T14:47:56;101245.53;;;4.15;100.00
57572;BME280;44459;43.522;24.470;2023-02-28T14:50:24;101242.25;;;4.19;100.00
57572;BME280;44459;43.522;24.470;2023-02-28T14:52:53;101251.72;;;4.17;100.00
57572;BME280;44459;43.522;24.470;2023-02-28T14:55:30;101243.03;;;4.16;100.00
57572;BME280;44459;43.522;24.470;2023-02-28T14:58:02;101244.78;;;4.17;100.00
57572;BME280;44459;43.522;24.470;2023-02-28T15:00:34;101234.19;;;4.14;100.00
57572;BME280;44459;43.522;24.470;2023-02-28T15:03:39;101242.16;;;4.17;100.00
57572;BME280;44459;43.522;24.470;2023-02-28T15:06:06;101250.84;;;4.16;100.00
57572;BME280;44459;43.522;24.470;2023-02-28T15:08:32;101252.56;;;4.16;100.00
57572;BME280;44459;43.522;24.470;2023-02-28T15:11:07;101252.44;;;4.13;100.00
57572;BME280;44459;43.522;24.470;2023-02-28T15:13:45;101262.03;;;4.14;100.00
57572;BME280;44459;43.522;24.470;2023-02-28T15:16:13;101266.31;;;4.12;100.00
57572;BME280;44459;43.522;24.470;2023-02-28T15:21:16;101241.81;;;4.10;100.00
57572;BME280;44459;43.522;24.470;2023-02-28T15:23:44;101244.59;;;4.13;100.00
57572;BME280;44459;43.522;24.470;2023-02-28T15:26:15;101242.41;;;4.04;100.00
57572;BME280;44459;43.522;24.470;2023-02-28T15:28:41;101242.50;;;4.05;100.00
57572;BME280;44459;43.522;24.470;2023-02-28T15:31:20;101249.44;;;4.05;100.00
57572;BME280;44459;43.522;24.470;2023-02-28T15:33:58;101240.47;;;4.00;100.00
57572;BME280;44459;43.522;24.470;2023-02-28T15:36:33;101239.00;;;4.05;100.00
57572;BME280;44459;43.522;24.470;2023-02-28T15:39:16;101239.00;;;4.05;100.00
57572;BME280;44459;43.522;24.470;2023-02-28T15:41:43;101252.25;;;4.10;100.00
57572;BME280;44459;43.522;24.470;2023-02-28T15:44:25;101260.66;;;4.02;100.00
57572;BME280;44459;43.522;24.470;2023-02-28T15:47:01;101272.19;;;4.07;100.00
57572;BME280;44459;43.522;24.470;2023-02-28T15:49:29;101264.97;;;4.02;100.00
57572;BME280;44459;43.522;24.470;2023-02-28T15:51:59;101258.19;;;4.05;100.00
57572;BME280;44459;43.522;24.470;2023-02-28T15:54:32;101258.91;;;4.03;100.00
57572;BME280;44459;43.522;24.470;2023-02-28T15:57:06;101263.06;;;3.99;100.00
57572;BME280;44459;43.522;24.470;2023-02-28T15:59:36;101271.75;;;3.98;100.00
57572;BME280;44459;43.522;24.470;2023-02-28T16:02:14;101268.38;;;4.01;100.00
57572;BME280;44459;43.522;24.470;2023-02-28T16:07:39;101263.06;;;3.99;100.00